sensor_id;sensor_type;location;lat;lon;timestamp;P1;durP1;ratioP1;P2;durP2;ratioP2
58864;SDS011;45702;52.982;6.658;2023-03-24T00:00:40;22.17;;;8.05;;
58864;SDS011;45702;52.982;6.658;2023-03-24T00:03:06;22.35;;;7.82;;
58864;SDS011;45702;52.982;6.658;2023-03-24T00:05:32;15.38;;;7.07;;
58864;SDS011;45702;52.982;6.658;2023-03-24T00:07:58;18.63;;;7.25;;
58864;SDS011;45702;52.982;6.658;2023-03-24T00:10:26;19.40;;;6.55;;
58864;SDS011;45702;52.982;6.658;2023-03-24T00:12:54;23.55;;;7.95;;
58864;SDS011;45702;52.982;6.658;2023-03-24T00:15:22;20.23;;;7.72;;
58864;SDS011;45702;52.982;6.658;2023-03-24T00:17:49;19.13;;;7.55;;
58864;SDS011;45702;52.982;6.658;2023-03-24T00:20:16;15.70;;;6.57;;
58864;SDS011;45702;52.982;6.658;2023-03-24T00:22:44;24.27;;;7.32;;
58864;SDS011;45702;52.982;6.658;2023-03-24T00:25:13;19.50;;;7.85;;
58864;SDS011;45702;52.982;6.658;2023-03-24T00:27:39;18.45;;;6.93;;
58864;SDS011;45702;52.982;6.658;2023-03-24T00:30:06;16.30;;;7.07;;
58864;SDS011;45702;52.982;6.658;2023-03-24T00:32:33;22.02;;;7.75;;
58864;SDS011;45702;52.982;6.658;2023-03-24T00:35:02;17.25;;;7.40;;
58864;SDS011;45702;52.982;6.658;2023-03-24T00:37:28;17.10;;;7.25;;
58864;SDS011;45702;52.982;6.658;2023-03-24T00:39:54;19.85;;;6.50;;
58864;SDS011;45702;52.982;6.658;2023-03-24T00:42:21;15.43;;;6.80;;
58864;SDS011;45702;52.982;6.658;2023-03-24T00:44:48;18.40;;;7.60;;
58864;SDS011;45702;52.982;6.658;2023-03-24T00:47:17;17.40;;;7.10;;
58864;SDS011;45702;52.982;6.658;2023-03-24T00:49:50;18.13;;;7.07;;
58864;SDS011;45702;52.982;6.658;2023-03-24T00:52:20;16.50;;;7.68;;
58864;SDS011;45702;52.982;6.658;2023-03-24T00:57:13;15.18;;;6.45;;
58864;SDS011;45702;52.982;6.658;2023-03-24T00:59:49;19.55;;;7.30;;
58864;SDS011;45702;52.982;6.658;2023-03-24T01:02:17;16.55;;;7.10;;
58864;SDS011;45702;52.982;6.658;2023-03-24T01:04:46;20.92;;;7.85;;
58864;SDS011;45702;52.982;6.658;2023-03-24T01:07:15;10.65;;;5.78;;
58864;SDS011;45702;52.982;6.658;2023-03-24T01:09:43;15.90;;;7.35;;
58864;SDS011;45702;52.982;6.658;2023-03-24T01:12:15;15.18;;;7.07;;
58864;SDS011;45702;52.982;6.658;2023-03-24T01:14:43;17.52;;;7.13;;
58864;SDS011;45702;52.982;6.658;2023-03-24T01:17:09;16.25;;;7.70;;
58864;SDS011;45702;52.982;6.658;2023-03-24T01:19:35;19.65;;;6.80;;
58864;SDS011;45702;52.982;6.658;2023-03-24T01:22:01;16.92;;;7.35;;
58864;SDS011;45702;52.982;6.658;2023-03-24T01:24:27;16.02;;;7.15;;
58864;SDS011;45702;52.982;6.658;2023-03-24T01:26:53;16.15;;;6.20;;
58864;SDS011;45702;52.982;6.658;2023-03-24T01:29:20;15.25;;;6.57;;
58864;SDS011;45702;52.982;6.658;2023-03-24T01:31:46;15.52;;;6.63;;
58864;SDS011;45702;52.982;6.658;2023-03-24T01:34:12;15.45;;;6.75;;
58864;SDS011;45702;52.982;6.658;2023-03-24T01:36:38;14.85;;;6.80;;
58864;SDS011;45702;52.982;6.658;2023-03-24T01:39:04;18.80;;;7.80;;
58864;SDS011;45702;52.982;6.658;2023-03-24T01:41:33;17.23;;;7.30;;
58864;SDS011;45702;52.982;6.658;2023-03-24T01:43:59;17.65;;;7.43;;
58864;SDS011;45702;52.982;6.658;2023-03-24T01:46:25;15.13;;;6.53;;
58864;SDS011;45702;52.982;6.658;2023-03-24T01:49:04;13.47;;;6.53;;
58864;SDS011;45702;52.982;6.658;2023-03-24T01:51:32;16.05;;;6.80;;
58864;SDS011;45702;52.982;6.658;2023-03-24T01:56:25;18.52;;;7.57;;
58864;SDS011;45702;52.982;6.658;2023-03-24T01:58:57;16.95;;;6.28;;
58864;SDS011;45702;52.982;6.658;2023-03-24T02:01:23;12.77;;;6.65;;
58864;SDS011;45702;52.982;6.658;2023-03-24T02:03:54;13.52;;;6.78;;
58864;SDS011;45702;52.982;6.658;2023-03-24T02:06:20;16.90;;;6.55;;
58864;SDS011;45702;52.982;6.658;2023-03-24T02:08:56;18.42;;;7.43;;
58864;SDS011;45702;52.982;6.658;2023-03-24T02:11:24;13.45;;;6.53;;
58864;SDS011;45702;52.982;6.658;2023-03-24T02:13:51;13.48;;;7.32;;
58864;SDS011;45702;52.982;6.658;2023-03-24T02:31:57;17.63;;;7.35;;
58864;SDS011;45702;52.982;6.658;2023-03-24T02:49:45;15.40;;;8.18;;
58864;SDS011;45702;52.982;6.658;2023-03-24T02:52:17;17.15;;;8.40;;
58864;SDS011;45702;52.982;6.658;2023-03-24T02:54:47;12.48;;;7.05;;
58864;SDS011;45702;52.982;6.658;2023-03-24T02:57:19;15.68;;;7.50;;
58864;SDS011;45702;52.982;6.658;2023-03-24T03:00:09;16.65;;;8.00;;
58864;SDS011;45702;52.982;6.658;2023-03-24T03:02:34;12.60;;;6.63;;
58864;SDS011;45702;52.982;6.658;2023-03-24T03:05:22;14.23;;;8.13;;
58864;SDS011;45702;52.982;6.658;2023-03-24T03:07:50;14.37;;;8.20;;
58864;SDS011;45702;52.982;6.658;2023-03-24T03:10:19;16.52;;;7.85;;
58864;SDS011;45702;52.982;6.658;2023-03-24T03:12:48;13.43;;;6.95;;
58864;SDS011;45702;52.982;6.658;2023-03-24T03:15:23;14.60;;;8.10;;
58864;SDS011;45702;52.982;6.658;2023-03-24T03:17:52;16.50;;;7.57;;
58864;SDS011;45702;52.982;6.658;2023-03-24T03:20:19;10.45;;;6.25;;
58864;SDS011;45702;52.982;6.658;2023-03-24T03:22:55;11.73;;;7.30;;
58864;SDS011;45702;52.982;6.658;2023-03-24T03:25:24;14.35;;;7.75;;
58864;SDS011;45702;52.982;6.658;2023-03-24T03:27:53;13.95;;;7.90;;
58864;SDS011;45702;52.982;6.658;2023-03-24T03:30:25;16.58;;;8.57;;
58864;SDS011;45702;52.982;6.658;2023-03-24T03:32:54;15.07;;;7.38;;
58864;SDS011;45702;52.982;6.658;2023-03-24T03:35:28;13.77;;;8.10;;
58864;SDS011;45702;52.982;6.658;2023-03-24T03:40:23;13.60;;;7.40;;
58864;SDS011;45702;52.982;6.658;2023-03-24T03:42:50;11.85;;;7.90;;
58864;SDS011;45702;52.982;6.658;2023-03-24T03:45:16;6.72;;;4.57;;
58864;SDS011;45702;52.982;6.658;2023-03-24T03:47:43;7.22;;;5.38;;
58864;SDS011;45702;52.982;6.658;2023-03-24T03:50:10;7.47;;;4.70;;
58864;SDS011;45702;52.982;6.658;2023-03-24T03:52:36;8.20;;;4.68;;
58864;SDS011;45702;52.982;6.658;2023-03-24T03:55:05;6.95;;;4.60;;
58864;SDS011;45702;52.982;6.658;2023-03-24T03:57:32;10.25;;;4.40;;
58864;SDS011;45702;52.982;6.658;2023-03-24T03:59:59;11.10;;;4.57;;
58864;SDS011;45702;52.982;6.658;2023-03-24T04:24:08;12.60;;;3.67;;
58864;SDS011;45702;52.982;6.658;2023-03-24T04:26:45;8.05;;;3.00;;
58864;SDS011;45702;52.982;6.658;2023-03-24T04:29:23;9.80;;;3.05;;
58864;SDS011;45702;52.982;6.658;2023-03-24T04:32:10;13.75;;;3.83;;
58864;SDS011;45702;52.982;6.658;2023-03-24T04:37:09;12.05;;;2.97;;
58864;SDS011;45702;52.982;6.658;2023-03-24T04:39:37;9.88;;;2.70;;
58864;SDS011;45702;52.982;6.658;2023-03-24T04:42:07;9.73;;;2.50;;
58864;SDS011;45702;52.982;6.658;2023-03-24T04:44:35;14.20;;;3.10;;
58864;SDS011;45702;52.982;6.658;2023-03-24T04:47:01;10.32;;;3.03;;
58864;SDS011;45702;52.982;6.658;2023-03-24T04:49:28;13.88;;;2.72;;
58864;SDS011;45702;52.982;6.658;2023-03-24T04:51:54;8.95;;;3.15;;
58864;SDS011;45702;52.982;6.658;2023-03-24T04:54:20;13.00;;;2.58;;
58864;SDS011;45702;52.982;6.658;2023-03-24T04:56:48;8.88;;;2.50;;
58864;SDS011;45702;52.982;6.658;2023-03-24T04:59:14;16.50;;;2.65;;
58864;SDS011;45702;52.982;6.658;2023-03-24T05:01:41;17.27;;;2.63;;
58864;SDS011;45702;52.982;6.658;2023-03-24T05:04:13;13.95;;;2.88;;
58864;SDS011;45702;52.982;6.658;2023-03-24T05:06:40;14.65;;;2.83;;
58864;SDS011;45702;52.982;6.658;2023-03-24T05:09:06;16.20;;;3.22;;
58864;SDS011;45702;52.982;6.658;2023-03-24T05:11:32;13.65;;;2.60;;
58864;SDS011;45702;52.982;6.658;2023-03-24T05:13:58;12.68;;;3.05;;
58864;SDS011;45702;52.982;6.658;2023-03-24T05:16:24;14.68;;;3.30;;
58864;SDS011;45702;52.982;6.658;2023-03-24T05:18:50;9.27;;;2.90;;
58864;SDS011;45702;52.982;6.658;2023-03-24T05:21:16;15.38;;;3.00;;
58864;SDS011;45702;52.982;6.658;2023-03-24T05:23:44;17.75;;;3.15;;
58864;SDS011;45702;52.982;6.658;2023-03-24T05:26:11;15.88;;;3.38;;
58864;SDS011;45702;52.982;6.658;2023-03-24T05:28:37;15.50;;;3.30;;
58864;SDS011;45702;52.982;6.658;2023-03-24T05:31:03;14.90;;;3.70;;
58864;SDS011;45702;52.982;6.658;2023-03-24T05:33:29;14.95;;;3.45;;
58864;SDS011;45702;52.982;6.658;2023-03-24T05:35:55;18.17;;;3.97;;
58864;SDS011;45702;52.982;6.658;2023-03-24T05:38:21;18.17;;;4.43;;
58864;SDS011;45702;52.982;6.658;2023-03-24T05:40:47;16.48;;;4.13;;
58864;SDS011;45702;52.982;6.658;2023-03-24T05:43:13;21.55;;;4.60;;
58864;SDS011;45702;52.982;6.658;2023-03-24T05:45:40;22.77;;;4.47;;
58864;SDS011;45702;52.982;6.658;2023-03-24T05:48:06;21.60;;;4.28;;
58864;SDS011;45702;52.982;6.658;2023-03-24T05:50:32;22.90;;;4.63;;
58864;SDS011;45702;52.982;6.658;2023-03-24T05:52:59;20.45;;;4.72;;
58864;SDS011;45702;52.982;6.658;2023-03-24T05:55:25;19.35;;;3.90;;
58864;SDS011;45702;52.982;6.658;2023-03-24T05:57:51;17.58;;;3.90;;
58864;SDS011;45702;52.982;6.658;2023-03-24T06:00:18;19.00;;;3.72;;
58864;SDS011;45702;52.982;6.658;2023-03-24T06:02:44;17.25;;;3.30;;
58864;SDS011;45702;52.982;6.658;2023-03-24T06:05:11;21.35;;;3.75;;
58864;SDS011;45702;52.982;6.658;2023-03-24T06:07:38;22.48;;;4.05;;
58864;SDS011;45702;52.982;6.658;2023-03-24T06:10:06;20.95;;;3.70;;
58864;SDS011;45702;52.982;6.658;2023-03-24T06:12:35;20.00;;;3.75;;
58864;SDS011;45702;52.982;6.658;2023-03-24T06:15:01;23.73;;;3.60;;
58864;SDS011;45702;52.982;6.658;2023-03-24T06:17:28;18.42;;;3.42;;
58864;SDS011;45702;52.982;6.658;2023-03-24T06:19:54;16.52;;;3.30;;
58864;SDS011;45702;52.982;6.658;2023-03-24T06:22:27;12.63;;;2.90;;
58864;SDS011;45702;52.982;6.658;2023-03-24T06:24:53;14.20;;;3.15;;
58864;SDS011;45702;52.982;6.658;2023-03-24T06:27:26;17.55;;;3.60;;
58864;SDS011;45702;52.982;6.658;2023-03-24T06:29:57;14.25;;;2.80;;
58864;SDS011;45702;52.982;6.658;2023-03-24T06:32:23;14.95;;;3.25;;
58864;SDS011;45702;52.982;6.658;2023-03-24T06:34:50;19.77;;;3.50;;
58864;SDS011;45702;52.982;6.658;2023-03-24T06:37:16;16.95;;;3.45;;
58864;SDS011;45702;52.982;6.658;2023-03-24T06:39:44;15.80;;;3.17;;
58864;SDS011;45702;52.982;6.658;2023-03-24T06:42:10;21.08;;;3.05;;
58864;SDS011;45702;52.982;6.658;2023-03-24T06:44:36;20.27;;;3.20;;
58864;SDS011;45702;52.982;6.658;2023-03-24T06:47:03;19.05;;;3.45;;
58864;SDS011;45702;52.982;6.658;2023-03-24T06:49:29;18.15;;;3.22;;
58864;SDS011;45702;52.982;6.658;2023-03-24T06:51:55;15.82;;;3.30;;
58864;SDS011;45702;52.982;6.658;2023-03-24T06:54:21;21.48;;;3.08;;
58864;SDS011;45702;52.982;6.658;2023-03-24T06:56:47;20.33;;;3.65;;
58864;SDS011;45702;52.982;6.658;2023-03-24T06:59:13;18.23;;;3.40;;
58864;SDS011;45702;52.982;6.658;2023-03-24T07:01:41;18.65;;;3.05;;
58864;SDS011;45702;52.982;6.658;2023-03-24T07:04:07;18.30;;;3.35;;
58864;SDS011;45702;52.982;6.658;2023-03-24T07:06:34;17.90;;;3.15;;
58864;SDS011;45702;52.982;6.658;2023-03-24T07:09:00;23.83;;;3.10;;
58864;SDS011;45702;52.982;6.658;2023-03-24T07:11:26;19.48;;;3.83;;
58864;SDS011;45702;52.982;6.658;2023-03-24T07:13:53;16.42;;;3.15;;
58864;SDS011;45702;52.982;6.658;2023-03-24T07:16:19;20.75;;;3.70;;
58864;SDS011;45702;52.982;6.658;2023-03-24T07:18:45;24.35;;;4.00;;
58864;SDS011;45702;52.982;6.658;2023-03-24T07:21:11;20.38;;;3.15;;
58864;SDS011;45702;52.982;6.658;2023-03-24T07:23:37;21.75;;;3.83;;
58864;SDS011;45702;52.982;6.658;2023-03-24T07:26:03;20.67;;;3.83;;
58864;SDS011;45702;52.982;6.658;2023-03-24T07:28:30;24.88;;;3.30;;
58864;SDS011;45702;52.982;6.658;2023-03-24T07:30:56;25.75;;;3.88;;
58864;SDS011;45702;52.982;6.658;2023-03-24T07:33:23;22.25;;;3.45;;
58864;SDS011;45702;52.982;6.658;2023-03-24T07:35:52;22.08;;;3.63;;
58864;SDS011;45702;52.982;6.658;2023-03-24T07:38:18;22.50;;;3.60;;
58864;SDS011;45702;52.982;6.658;2023-03-24T07:40:45;27.75;;;3.65;;
58864;SDS011;45702;52.982;6.658;2023-03-24T07:43:11;30.63;;;4.35;;
58864;SDS011;45702;52.982;6.658;2023-03-24T07:45:37;29.50;;;3.97;;
58864;SDS011;45702;52.982;6.658;2023-03-24T07:48:03;30.08;;;4.60;;
58864;SDS011;45702;52.982;6.658;2023-03-24T07:50:29;25.42;;;3.60;;
58864;SDS011;45702;52.982;6.658;2023-03-24T07:52:57;28.08;;;4.07;;
58864;SDS011;45702;52.982;6.658;2023-03-24T07:55:23;28.58;;;3.78;;
58864;SDS011;45702;52.982;6.658;2023-03-24T07:57:49;29.15;;;3.78;;
58864;SDS011;45702;52.982;6.658;2023-03-24T08:00:16;23.75;;;3.20;;
58864;SDS011;45702;52.982;6.658;2023-03-24T08:02:46;32.67;;;3.85;;
58864;SDS011;45702;52.982;6.658;2023-03-24T08:05:13;25.15;;;4.15;;
58864;SDS011;45702;52.982;6.658;2023-03-24T08:07:43;29.63;;;3.90;;
58864;SDS011;45702;52.982;6.658;2023-03-24T08:10:10;26.30;;;4.03;;
58864;SDS011;45702;52.982;6.658;2023-03-24T08:12:38;27.30;;;4.43;;
58864;SDS011;45702;52.982;6.658;2023-03-24T08:15:04;25.52;;;3.72;;
58864;SDS011;45702;52.982;6.658;2023-03-24T08:17:31;22.20;;;3.75;;
58864;SDS011;45702;52.982;6.658;2023-03-24T08:19:57;26.75;;;3.60;;
58864;SDS011;45702;52.982;6.658;2023-03-24T08:22:24;28.00;;;3.78;;
58864;SDS011;45702;52.982;6.658;2023-03-24T08:24:51;25.50;;;3.30;;
58864;SDS011;45702;52.982;6.658;2023-03-24T08:27:17;23.70;;;3.83;;
58864;SDS011;45702;52.982;6.658;2023-03-24T08:29:44;30.90;;;4.22;;
58864;SDS011;45702;52.982;6.658;2023-03-24T08:32:10;28.50;;;4.53;;
58864;SDS011;45702;52.982;6.658;2023-03-24T08:34:36;23.83;;;3.58;;
58864;SDS011;45702;52.982;6.658;2023-03-24T08:37:02;23.63;;;3.65;;
58864;SDS011;45702;52.982;6.658;2023-03-24T08:39:28;27.58;;;3.25;;
58864;SDS011;45702;52.982;6.658;2023-03-24T08:41:56;24.85;;;3.83;;
58864;SDS011;45702;52.982;6.658;2023-03-24T08:44:23;26.65;;;3.88;;
58864;SDS011;45702;52.982;6.658;2023-03-24T08:46:49;27.27;;;4.20;;
58864;SDS011;45702;52.982;6.658;2023-03-24T08:49:16;24.65;;;3.47;;
58864;SDS011;45702;52.982;6.658;2023-03-24T08:51:42;23.65;;;3.88;;
58864;SDS011;45702;52.982;6.658;2023-03-24T08:54:08;26.85;;;3.65;;
58864;SDS011;45702;52.982;6.658;2023-03-24T08:56:37;19.03;;;3.37;;
58864;SDS011;45702;52.982;6.658;2023-03-24T08:59:03;26.42;;;3.83;;
58864;SDS011;45702;52.982;6.658;2023-03-24T09:01:31;22.02;;;3.00;;
58864;SDS011;45702;52.982;6.658;2023-03-24T09:03:59;21.52;;;3.10;;
58864;SDS011;45702;52.982;6.658;2023-03-24T09:06:25;22.75;;;3.30;;
58864;SDS011;45702;52.982;6.658;2023-03-24T09:08:54;21.50;;;2.72;;
58864;SDS011;45702;52.982;6.658;2023-03-24T09:11:21;21.05;;;2.92;;
58864;SDS011;45702;52.982;6.658;2023-03-24T09:13:47;27.60;;;3.67;;
58864;SDS011;45702;52.982;6.658;2023-03-24T09:16:14;21.50;;;3.20;;
58864;SDS011;45702;52.982;6.658;2023-03-24T09:18:40;20.52;;;2.97;;
58864;SDS011;45702;52.982;6.658;2023-03-24T09:21:07;21.25;;;3.03;;
58864;SDS011;45702;52.982;6.658;2023-03-24T09:23:33;21.48;;;3.30;;
58864;SDS011;45702;52.982;6.658;2023-03-24T09:26:00;18.10;;;2.97;;
58864;SDS011;45702;52.982;6.658;2023-03-24T09:28:26;26.00;;;3.33;;
58864;SDS011;45702;52.982;6.658;2023-03-24T09:30:59;24.48;;;3.28;;
58864;SDS011;45702;52.982;6.658;2023-03-24T09:33:27;21.70;;;3.15;;
58864;SDS011;45702;52.982;6.658;2023-03-24T09:35:58;27.38;;;3.28;;
58864;SDS011;45702;52.982;6.658;2023-03-24T09:38:24;23.70;;;3.03;;
58864;SDS011;45702;52.982;6.658;2023-03-24T09:41:00;19.25;;;3.20;;
58864;SDS011;45702;52.982;6.658;2023-03-24T09:44:14;29.67;;;3.55;;
58864;SDS011;45702;52.982;6.658;2023-03-24T09:46:14;19.70;;;3.22;;
58864;SDS011;45702;52.982;6.658;2023-03-24T09:48:46;24.10;;;2.92;;
58864;SDS011;45702;52.982;6.658;2023-03-24T09:53:58;19.92;;;3.10;;
58864;SDS011;45702;52.982;6.658;2023-03-24T09:56:25;24.38;;;2.85;;
58864;SDS011;45702;52.982;6.658;2023-03-24T10:01:32;21.30;;;3.00;;
58864;SDS011;45702;52.982;6.658;2023-03-24T10:04:00;24.40;;;3.33;;
58864;SDS011;45702;52.982;6.658;2023-03-24T10:06:31;20.10;;;2.80;;
58864;SDS011;45702;52.982;6.658;2023-03-24T10:09:07;24.33;;;3.13;;
58864;SDS011;45702;52.982;6.658;2023-03-24T10:11:48;25.10;;;3.50;;
58864;SDS011;45702;52.982;6.658;2023-03-24T10:17:21;20.77;;;2.78;;
58864;SDS011;45702;52.982;6.658;2023-03-24T10:25:29;19.90;;;3.13;;
58864;SDS011;45702;52.982;6.658;2023-03-24T10:30:42;18.38;;;3.15;;
58864;SDS011;45702;52.982;6.658;2023-03-24T10:33:12;21.08;;;3.28;;
58864;SDS011;45702;52.982;6.658;2023-03-24T10:35:49;25.75;;;3.25;;
58864;SDS011;45702;52.982;6.658;2023-03-24T10:38:17;24.42;;;2.90;;
58864;SDS011;45702;52.982;6.658;2023-03-24T10:40:44;18.17;;;3.33;;
58864;SDS011;45702;52.982;6.658;2023-03-24T10:43:11;13.65;;;2.60;;
58864;SDS011;45702;52.982;6.658;2023-03-24T10:45:38;21.75;;;3.03;;
58864;SDS011;45702;52.982;6.658;2023-03-24T10:48:05;28.98;;;3.58;;
58864;SDS011;45702;52.982;6.658;2023-03-24T10:50:33;26.33;;;3.20;;
58864;SDS011;45702;52.982;6.658;2023-03-24T10:53:00;24.70;;;3.45;;
58864;SDS011;45702;52.982;6.658;2023-03-24T10:55:37;20.88;;;3.55;;
58864;SDS011;45702;52.982;6.658;2023-03-24T10:58:03;20.35;;;2.90;;
58864;SDS011;45702;52.982;6.658;2023-03-24T11:00:38;21.25;;;2.97;;
58864;SDS011;45702;52.982;6.658;2023-03-24T11:03:05;24.15;;;4.15;;
58864;SDS011;45702;52.982;6.658;2023-03-24T11:05:34;23.60;;;2.95;;
58864;SDS011;45702;52.982;6.658;2023-03-24T11:10:39;22.70;;;3.63;;
58864;SDS011;45702;52.982;6.658;2023-03-24T11:13:13;18.13;;;3.00;;
58864;SDS011;45702;52.982;6.658;2023-03-24T11:15:52;25.23;;;3.25;;
58864;SDS011;45702;52.982;6.658;2023-03-24T11:18:18;23.52;;;2.90;;
58864;SDS011;45702;52.982;6.658;2023-03-24T11:20:46;24.33;;;3.30;;
58864;SDS011;45702;52.982;6.658;2023-03-24T11:23:27;16.73;;;2.97;;
58864;SDS011;45702;52.982;6.658;2023-03-24T11:26:03;21.42;;;2.90;;
58864;SDS011;45702;52.982;6.658;2023-03-24T11:29:14;17.05;;;2.53;;
58864;SDS011;45702;52.982;6.658;2023-03-24T11:31:28;19.80;;;3.00;;
58864;SDS011;45702;52.982;6.658;2023-03-24T11:33:56;23.50;;;2.90;;
58864;SDS011;45702;52.982;6.658;2023-03-24T11:41:28;19.50;;;2.92;;
58864;SDS011;45702;52.982;6.658;2023-03-24T11:44:13;14.55;;;2.35;;
58864;SDS011;45702;52.982;6.658;2023-03-24T11:46:40;18.50;;;2.55;;
58864;SDS011;45702;52.982;6.658;2023-03-24T11:49:08;18.60;;;2.88;;
58864;SDS011;45702;52.982;6.658;2023-03-24T11:51:35;17.10;;;2.97;;
58864;SDS011;45702;52.982;6.658;2023-03-24T11:54:03;13.65;;;2.53;;
58864;SDS011;45702;52.982;6.658;2023-03-24T11:56:32;16.30;;;2.60;;
58864;SDS011;45702;52.982;6.658;2023-03-24T11:59:18;20.67;;;2.72;;
58864;SDS011;45702;52.982;6.658;2023-03-24T12:04:56;18.15;;;2.63;;
58864;SDS011;45702;52.982;6.658;2023-03-24T12:07:40;17.65;;;2.80;;
58864;SDS011;45702;52.982;6.658;2023-03-24T12:10:29;17.20;;;2.72;;
58864;SDS011;45702;52.982;6.658;2023-03-24T12:13:02;15.68;;;2.50;;
58864;SDS011;45702;52.982;6.658;2023-03-24T12:18:00;13.15;;;2.55;;
58864;SDS011;45702;52.982;6.658;2023-03-24T12:28:20;17.52;;;2.70;;
58864;SDS011;45702;52.982;6.658;2023-03-24T12:33:52;15.43;;;2.25;;
58864;SDS011;45702;52.982;6.658;2023-03-24T12:57:03;14.88;;;1.80;;
58864;SDS011;45702;52.982;6.658;2023-03-24T12:59:37;12.05;;;1.92;;
58864;SDS011;45702;52.982;6.658;2023-03-24T13:04:49;14.82;;;1.95;;
58864;SDS011;45702;52.982;6.658;2023-03-24T13:07:18;15.27;;;2.20;;
58864;SDS011;45702;52.982;6.658;2023-03-24T13:10:00;15.07;;;1.92;;
58864;SDS011;45702;52.982;6.658;2023-03-24T13:12:36;14.70;;;2.10;;
58864;SDS011;45702;52.982;6.658;2023-03-24T13:15:17;17.20;;;2.30;;
58864;SDS011;45702;52.982;6.658;2023-03-24T13:17:59;15.63;;;2.22;;
58864;SDS011;45702;52.982;6.658;2023-03-24T13:20:32;13.50;;;1.95;;
58864;SDS011;45702;52.982;6.658;2023-03-24T13:25:58;14.75;;;2.15;;
58864;SDS011;45702;52.982;6.658;2023-03-24T13:28:28;13.43;;;2.30;;
58864;SDS011;45702;52.982;6.658;2023-03-24T13:30:56;14.13;;;1.80;;
58864;SDS011;45702;52.982;6.658;2023-03-24T13:33:26;13.32;;;2.30;;
58864;SDS011;45702;52.982;6.658;2023-03-24T13:38:39;13.05;;;2.00;;
58864;SDS011;45702;52.982;6.658;2023-03-24T13:41:10;15.80;;;1.98;;
58864;SDS011;45702;52.982;6.658;2023-03-24T13:43:36;15.98;;;2.50;;
58864;SDS011;45702;52.982;6.658;2023-03-24T13:46:11;16.08;;;2.80;;
58864;SDS011;45702;52.982;6.658;2023-03-24T13:48:39;20.30;;;2.47;;
58864;SDS011;45702;52.982;6.658;2023-03-24T13:51:10;18.13;;;2.83;;
58864;SDS011;45702;52.982;6.658;2023-03-24T13:56:21;15.10;;;2.45;;
58864;SDS011;45702;52.982;6.658;2023-03-24T13:58:49;17.00;;;2.95;;
58864;SDS011;45702;52.982;6.658;2023-03-24T14:01:16;14.27;;;2.40;;
58864;SDS011;45702;52.982;6.658;2023-03-24T14:03:44;16.23;;;2.45;;
58864;SDS011;45702;52.982;6.658;2023-03-24T14:06:14;17.27;;;2.25;;
58864;SDS011;45702;52.982;6.658;2023-03-24T14:16:43;19.42;;;2.22;;
58864;SDS011;45702;52.982;6.658;2023-03-24T14:19:21;18.05;;;2.72;;
58864;SDS011;45702;52.982;6.658;2023-03-24T14:21:51;19.60;;;2.70;;
58864;SDS011;45702;52.982;6.658;2023-03-24T14:24:27;21.52;;;2.58;;
58864;SDS011;45702;52.982;6.658;2023-03-24T14:26:54;15.27;;;2.25;;
58864;SDS011;45702;52.982;6.658;2023-03-24T14:29:34;16.70;;;2.75;;
58864;SDS011;45702;52.982;6.658;2023-03-24T14:32:01;17.70;;;2.65;;
58864;SDS011;45702;52.982;6.658;2023-03-24T14:34:28;18.25;;;2.83;;
58864;SDS011;45702;52.982;6.658;2023-03-24T14:37:02;15.40;;;2.50;;
58864;SDS011;45702;52.982;6.658;2023-03-24T14:41:56;17.35;;;2.42;;
58864;SDS011;45702;52.982;6.658;2023-03-24T14:47:08;13.43;;;1.77;;
58864;SDS011;45702;52.982;6.658;2023-03-24T14:49:34;14.50;;;1.60;;
58864;SDS011;45702;52.982;6.658;2023-03-24T14:52:02;12.48;;;1.77;;
58864;SDS011;45702;52.982;6.658;2023-03-24T14:54:43;11.13;;;1.60;;
58864;SDS011;45702;52.982;6.658;2023-03-24T14:57:15;13.95;;;1.80;;
58864;SDS011;45702;52.982;6.658;2023-03-24T15:00:05;15.25;;;1.52;;
58864;SDS011;45702;52.982;6.658;2023-03-24T15:07:41;12.07;;;1.60;;
58864;SDS011;45702;52.982;6.658;2023-03-24T15:10:14;11.13;;;1.70;;
58864;SDS011;45702;52.982;6.658;2023-03-24T15:12:47;12.38;;;1.70;;
58864;SDS011;45702;52.982;6.658;2023-03-24T15:15:17;10.85;;;1.40;;
58864;SDS011;45702;52.982;6.658;2023-03-24T15:17:44;7.82;;;1.45;;
58864;SDS011;45702;52.982;6.658;2023-03-24T15:20:24;10.93;;;1.33;;
58864;SDS011;45702;52.982;6.658;2023-03-24T15:22:51;10.68;;;2.00;;
58864;SDS011;45702;52.982;6.658;2023-03-24T15:25:26;15.27;;;1.90;;
58864;SDS011;45702;52.982;6.658;2023-03-24T15:27:53;13.75;;;1.80;;
58864;SDS011;45702;52.982;6.658;2023-03-24T15:30:19;12.82;;;1.58;;
58864;SDS011;45702;52.982;6.658;2023-03-24T15:32:45;15.82;;;2.20;;
58864;SDS011;45702;52.982;6.658;2023-03-24T15:35:22;13.03;;;1.70;;
58864;SDS011;45702;52.982;6.658;2023-03-24T15:37:50;15.75;;;2.35;;
58864;SDS011;45702;52.982;6.658;2023-03-24T15:42:59;10.70;;;1.52;;
58864;SDS011;45702;52.982;6.658;2023-03-24T15:47:52;13.68;;;1.63;;
58864;SDS011;45702;52.982;6.658;2023-03-24T15:50:32;11.98;;;1.67;;
58864;SDS011;45702;52.982;6.658;2023-03-24T15:53:21;13.25;;;1.77;;
58864;SDS011;45702;52.982;6.658;2023-03-24T15:55:45;17.58;;;1.95;;
58864;SDS011;45702;52.982;6.658;2023-03-24T16:00:51;11.75;;;1.80;;
58864;SDS011;45702;52.982;6.658;2023-03-24T16:03:18;13.60;;;1.95;;
58864;SDS011;45702;52.982;6.658;2023-03-24T16:05:44;12.25;;;2.10;;
58864;SDS011;45702;52.982;6.658;2023-03-24T16:08:26;17.30;;;1.98;;
58864;SDS011;45702;52.982;6.658;2023-03-24T16:10:59;16.75;;;1.95;;
58864;SDS011;45702;52.982;6.658;2023-03-24T16:13:27;14.20;;;2.25;;
58864;SDS011;45702;52.982;6.658;2023-03-24T16:15:58;15.48;;;2.30;;
58864;SDS011;45702;52.982;6.658;2023-03-24T16:18:37;20.40;;;2.33;;
58864;SDS011;45702;52.982;6.658;2023-03-24T16:24:06;16.48;;;1.85;;
58864;SDS011;45702;52.982;6.658;2023-03-24T16:26:33;15.93;;;1.73;;
58864;SDS011;45702;52.982;6.658;2023-03-24T16:29:13;12.77;;;2.05;;
58864;SDS011;45702;52.982;6.658;2023-03-24T16:31:43;12.07;;;1.95;;
58864;SDS011;45702;52.982;6.658;2023-03-24T16:34:13;16.27;;;2.08;;
58864;SDS011;45702;52.982;6.658;2023-03-24T16:36:39;12.45;;;1.73;;
58864;SDS011;45702;52.982;6.658;2023-03-24T16:39:09;8.07;;;1.63;;
58864;SDS011;45702;52.982;6.658;2023-03-24T16:41:37;15.75;;;1.90;;
58864;SDS011;45702;52.982;6.658;2023-03-24T16:44:03;9.43;;;1.60;;
58864;SDS011;45702;52.982;6.658;2023-03-24T16:46:30;13.23;;;1.88;;
58864;SDS011;45702;52.982;6.658;2023-03-24T16:48:57;10.77;;;1.80;;
58864;SDS011;45702;52.982;6.658;2023-03-24T16:51:23;9.90;;;1.63;;
58864;SDS011;45702;52.982;6.658;2023-03-24T16:53:51;20.08;;;2.72;;
58864;SDS011;45702;52.982;6.658;2023-03-24T16:56:18;10.52;;;1.40;;
58864;SDS011;45702;52.982;6.658;2023-03-24T16:58:45;10.73;;;1.90;;
58864;SDS011;45702;52.982;6.658;2023-03-24T17:03:51;14.68;;;1.92;;
58864;SDS011;45702;52.982;6.658;2023-03-24T17:06:18;12.20;;;1.92;;
58864;SDS011;45702;52.982;6.658;2023-03-24T17:08:45;10.77;;;1.55;;
58864;SDS011;45702;52.982;6.658;2023-03-24T17:11:11;10.90;;;1.67;;
58864;SDS011;45702;52.982;6.658;2023-03-24T17:13:37;11.48;;;1.73;;
58864;SDS011;45702;52.982;6.658;2023-03-24T17:16:04;15.88;;;2.10;;
58864;SDS011;45702;52.982;6.658;2023-03-24T17:18:31;11.48;;;1.80;;
58864;SDS011;45702;52.982;6.658;2023-03-24T17:20:57;7.13;;;1.55;;
58864;SDS011;45702;52.982;6.658;2023-03-24T17:23:23;12.30;;;1.65;;
58864;SDS011;45702;52.982;6.658;2023-03-24T17:25:49;8.77;;;1.92;;
58864;SDS011;45702;52.982;6.658;2023-03-24T17:28:16;12.40;;;1.65;;
58864;SDS011;45702;52.982;6.658;2023-03-24T17:30:42;11.80;;;1.60;;
58864;SDS011;45702;52.982;6.658;2023-03-24T17:33:12;8.15;;;1.70;;